Time;durP1;ratioP1;P1;durP2;ratioP2;P2;SDS_P1;SDS_P2;PMS_P1;PMS_P2;Temp;Humidity;BMP_temperature;BMP_pressure;BME280_temperature;BME280_humidity;BME280_pressure;Samples;Min_cycle;Max_cycle;Signal;HPM_P1;HPM_P2
2023/10/29 00:00:56;;;;;;;;;;;10.30;99.90;;;;;;5013097;28;20004;-71
2023/10/29 00:03:22;;;;;;;;;;;10.30;99.90;;;;;;5012599;28;20652;-71
2023/10/29 00:05:49;;;;;;;;;;;10.30;99.90;;;;;;5013265;28;19929;-72
2023/10/29 00:08:17;;;;;;;;;;;10.30;99.90;;;;;;5012764;28;20450;-71
2023/10/29 00:10:43;;;;;;;;;;;10.30;99.90;;;;;;5012496;28;19925;-71
2023/10/29 00:13:10;;;;;;;;;;;10.30;99.90;;;;;;5012669;28;19964;-71
2023/10/29 00:15:36;;;;;;;;;;;10.30;99.90;;;;;;5012797;28;19941;-71
2023/10/29 00:18:08;;;;;;;;;;;10.40;99.90;;;;;;5012328;28;19929;-71
2023/10/29 00:20:34;;;;;;;;;;;10.40;99.90;;;;;;5012971;28;19930;-71
2023/10/29 00:23:01;;;;;;;;;;;10.40;99.90;;;;;;5012822;28;19925;-71
2023/10/29 00:25:29;;;;;;;;;;;10.40;99.90;;;;;;5012596;28;20390;-71
2023/10/29 00:27:56;;;;;;;;;;;10.40;99.90;;;;;;5012320;28;19925;-71
2023/10/29 00:30:22;;;;;;;;;;;10.40;99.90;;;;;;5012400;28;19972;-71
2023/10/29 00:32:49;;;;;;;;;;;10.40;99.90;;;;;;5012464;28;19929;-71
2023/10/29 00:35:15;;;;;;;;;;;10.40;99.90;;;;;;5013001;28;19987;-71
2023/10/29 00:37:42;;;;;;;;;;;10.40;99.90;;;;;;5012244;28;19926;-71
2023/10/29 00:40:09;;;;;;;;;;;10.40;99.90;;;;;;5012349;28;19925;-71
2023/10/29 00:42:37;;;;;;;;;;;10.40;99.90;;;;;;5012316;28;19959;-71
2023/10/29 00:45:04;;;;;;;;;;;10.40;99.90;;;;;;5011963;28;19999;-71
2023/10/29 00:47:30;;;;;;;;;;;10.50;99.90;;;;;;5012003;28;19925;-71
2023/10/29 00:49:57;;;;;;;;;;;10.40;99.90;;;;;;5011922;28;20453;-71
2023/10/29 00:52:23;;;;;;;;;;;10.40;99.90;;;;;;5012334;28;19929;-71
2023/10/29 00:54:50;;;;;;;;;;;10.50;99.90;;;;;;5011914;28;19929;-71
2023/10/29 00:57:16;;;;;;;;;;;10.50;99.90;;;;;;5011738;28;20122;-71
2023/10/29 00:59:45;;;;;;;;;;;10.50;99.90;;;;;;5011819;28;20304;-71
2023/10/29 01:02:11;;;;;;;;;;;10.40;99.90;;;;;;5012069;28;19926;-71
2023/10/29 01:04:38;;;;;;;;;;;10.50;99.90;;;;;;5011836;28;19929;-71
2023/10/29 01:07:04;;;;;;;;;;;10.40;99.90;;;;;;5011354;28;19930;-71
2023/10/29 01:09:31;;;;;;;;;;;10.50;99.90;;;;;;5008988;28;20003;-71
2023/10/29 01:11:57;;;;;;;;;;;10.40;99.90;;;;;;5011842;28;19933;-71
2023/10/29 01:14:24;;;;;;;;;;;10.50;99.90;;;;;;5011832;28;19936;-71
2023/10/29 01:16:52;;;;;;;;;;;10.40;99.90;;;;;;5011448;28;19929;-71
2023/10/29 01:19:19;;;;;;;;;;;10.40;99.90;;;;;;5012025;28;20518;-71
2023/10/29 01:21:45;;;;;;;;;;;10.40;99.90;;;;;;5011626;28;19940;-71
2023/10/29 01:24:12;;;;;;;;;;;10.40;99.90;;;;;;5011981;28;19980;-71
2023/10/29 01:26:38;;;;;;;;;;;10.50;99.90;;;;;;5011402;28;19979;-71
2023/10/29 01:29:05;;;;;;;;;;;10.50;99.90;;;;;;5011535;28;19930;-71
2023/10/29 01:31:31;;;;;;;;;;;10.50;99.90;;;;;;5012536;28;20392;-71
2023/10/29 01:33:59;;;;;;;;;;;10.50;99.90;;;;;;5011756;28;19925;-71
2023/10/29 01:36:26;;;;;;;;;;;10.50;99.90;;;;;;5011177;28;19948;-71
2023/10/29 01:38:52;;;;;;;;;;;10.60;99.90;;;;;;5020565;28;19925;-71
2023/10/29 01:41:18;;;;;;;;;;;10.60;99.90;;;;;;5029083;28;20395;-71
2023/10/29 01:43:45;;;;;;;;;;;10.70;99.90;;;;;;5012527;28;19980;-71
2023/10/29 01:46:11;;;;;;;;;;;10.70;99.90;;;;;;5012026;28;19944;-72
2023/10/29 01:48:38;;;;;;;;;;;10.70;99.90;;;;;;5011017;28;19926;-71
2023/10/29 01:51:06;;;;;;;;;;;10.70;99.90;;;;;;5011351;28;19953;-72
2023/10/29 01:53:33;;;;;;;;;;;10.80;99.90;;;;;;5011362;28;19952;-71
2023/10/29 01:56:00;;;;;;;;;;;10.80;99.90;;;;;;5011405;28;19929;-71
2023/10/29 01:58:26;;;;;;;;;;;10.90;99.90;;;;;;5011314;28;19926;-71
2023/10/29 02:00:55;;;;;;;;;;;11.00;99.90;;;;;;5011443;28;19925;-71
2023/10/29 02:03:21;;;;;;;;;;;10.90;99.90;;;;;;5011096;28;20391;-71
2023/10/29 02:05:48;;;;;;;;;;;11.00;99.90;;;;;;5010997;28;19988;-71
2023/10/29 02:08:17;;;;;;;;;;;11.00;99.90;;;;;;5010907;28;20454;-71
2023/10/29 02:10:43;;;;;;;;;;;10.90;99.90;;;;;;5010815;28;20284;-71
2023/10/29 02:13:10;;;;;;;;;;;10.90;99.90;;;;;;5011320;28;19930;-71
2023/10/29 02:15:36;;;;;;;;;;;10.80;99.90;;;;;;5012045;28;19925;-71
2023/10/29 02:18:03;;;;;;;;;;;10.80;99.90;;;;;;5014826;28;19926;-71
2023/10/29 02:20:29;;;;;;;;;;;10.70;99.90;;;;;;5015029;28;19949;-71
2023/10/29 02:22:57;;;;;;;;;;;10.70;99.90;;;;;;5014596;28;20457;-71
2023/10/29 02:25:24;;;;;;;;;;;10.70;99.90;;;;;;5015290;28;19929;-71
2023/10/29 02:27:50;;;;;;;;;;;10.70;99.90;;;;;;5015008;28;19980;-71
2023/10/29 02:30:17;;;;;;;;;;;10.70;99.90;;;;;;5014871;28;19925;-71
2023/10/29 02:32:44;;;;;;;;;;;10.60;99.90;;;;;;5014096;28;19926;-71
2023/10/29 02:35:10;;;;;;;;;;;10.60;99.90;;;;;;5015024;28;19925;-71
2023/10/29 02:37:37;;;;;;;;;;;10.60;99.90;;;;;;5014220;28;19927;-71
2023/10/29 02:40:05;;;;;;;;;;;10.60;99.90;;;;;;5014922;28;19980;-71
2023/10/29 02:42:31;;;;;;;;;;;10.50;99.90;;;;;;5014557;28;20387;-70
2023/10/29 02:44:59;;;;;;;;;;;10.60;99.90;;;;;;5015653;28;19980;-71
2023/10/29 02:47:25;;;;;;;;;;;10.60;99.90;;;;;;5014252;28;20049;-71
2023/10/29 02:49:52;;;;;;;;;;;10.60;99.90;;;;;;5014183;28;19925;-71
2023/10/29 02:52:18;;;;;;;;;;;10.60;99.90;;;;;;5015414;28;19983;-71
2023/10/29 02:54:45;;;;;;;;;;;10.60;99.90;;;;;;5012329;28;20391;-71
2023/10/29 02:57:13;;;;;;;;;;;10.70;99.90;;;;;;5014363;28;19930;-71
2023/10/29 02:59:40;;;;;;;;;;;10.70;99.90;;;;;;5016418;28;19929;-72
2023/10/29 03:02:06;;;;;;;;;;;10.70;99.90;;;;;;5011739;28;19980;-71
2023/10/29 03:04:33;;;;;;;;;;;10.60;99.90;;;;;;5013987;28;19925;-72
2023/10/29 03:07:00;;;;;;;;;;;10.70;99.90;;;;;;5014029;28;20004;-72
2023/10/29 03:09:26;;;;;;;;;;;10.70;99.90;;;;;;5014091;28;19929;-71
2023/10/29 03:11:53;;;;;;;;;;;10.70;99.90;;;;;;5014148;28;19980;-72
2023/10/29 03:14:21;;;;;;;;;;;10.60;99.90;;;;;;5015271;28;19980;-72
2023/10/29 03:16:47;;;;;;;;;;;10.60;99.90;;;;;;5013606;28;20299;-72
2023/10/29 03:19:14;;;;;;;;;;;10.60;99.90;;;;;;5013667;28;19926;-71
2023/10/29 03:21:40;;;;;;;;;;;10.60;99.90;;;;;;5014233;28;19932;-72
2023/10/29 03:24:07;;;;;;;;;;;10.60;99.90;;;;;;5014031;28;19925;-71
2023/10/29 03:26:33;;;;;;;;;;;10.60;99.90;;;;;;5013550;28;19926;-72
2023/10/29 03:29:00;;;;;;;;;;;10.60;99.90;;;;;;5013291;28;20651;-72
2023/10/29 03:31:28;;;;;;;;;;;10.60;99.90;;;;;;5013638;28;19925;-72
2023/10/29 03:33:54;;;;;;;;;;;10.60;99.90;;;;;;5013426;28;19972;-72
2023/10/29 03:36:21;;;;;;;;;;;10.60;99.90;;;;;;5013504;28;19925;-72
2023/10/29 03:38:47;;;;;;;;;;;10.60;99.90;;;;;;5012189;28;20342;-72
2023/10/29 03:41:21;;;;;;;;;;;10.60;99.90;;;;;;5015065;28;19925;-72
2023/10/29 03:43:47;;;;;;;;;;;10.60;99.90;;;;;;5013486;28;19929;-72
2023/10/29 03:46:14;;;;;;;;;;;10.60;99.90;;;;;;5013085;28;20307;-72
2023/10/29 03:48:44;;;;;;;;;;;10.60;99.90;;;;;;5010030;28;19925;-72
2023/10/29 03:51:11;;;;;;;;;;;10.60;99.90;;;;;;5013497;28;19926;-72
2023/10/29 03:53:38;;;;;;;;;;;10.70;99.90;;;;;;5013353;28;19988;-72
2023/10/29 03:56:04;;;;;;;;;;;10.70;99.90;;;;;;5013304;28;20273;-72
2023/10/29 03:58:31;;;;;;;;;;;10.70;99.90;;;;;;5014717;28;20453;-71
2023/10/29 04:00:57;;;;;;;;;;;10.70;99.90;;;;;;5012844;28;19929;-72
2023/10/29 04:03:24;;;;;;;;;;;10.70;99.90;;;;;;5013494;28;19926;-71
2023/10/29 04:05:52;;;;;;;;;;;10.80;99.90;;;;;;5013110;28;19930;-72
2023/10/29 04:08:18;;;;;;;;;;;10.80;99.90;;;;;;5012877;28;19926;-71
2023/10/29 04:10:45;;;;;;;;;;;10.80;99.90;;;;;;5014134;28;19980;-72
2023/10/29 04:13:11;;;;;;;;;;;10.80;99.90;;;;;;5013026;28;19925;-71
2023/10/29 04:15:38;;;;;;;;;;;10.80;99.90;;;;;;5012445;28;19929;-72
2023/10/29 04:18:04;;;;;;;;;;;10.80;99.90;;;;;;5012792;28;19925;-72
2023/10/29 04:20:31;;;;;;;;;;;10.80;99.90;;;;;;5012841;28;19925;-72
2023/10/29 04:22:59;;;;;;;;;;;10.70;99.90;;;;;;5012462;28;20351;-72
2023/10/29 04:25:25;;;;;;;;;;;10.70;99.90;;;;;;5012836;28;19929;-72
2023/10/29 04:27:52;;;;;;;;;;;10.80;99.90;;;;;;5012166;28;20033;-71
2023/10/29 04:30:18;;;;;;;;;;;10.70;99.90;;;;;;5012567;28;19933;-72
2023/10/29 04:32:44;;;;;;;;;;;10.70;99.90;;;;;;5013156;28;20458;-72
2023/10/29 04:35:11;;;;;;;;;;;10.70;99.90;;;;;;5012700;28;19933;-72
2023/10/29 04:37:37;;;;;;;;;;;10.70;99.90;;;;;;5012536;28;19972;-72
2023/10/29 04:40:06;;;;;;;;;;;10.70;99.90;;;;;;5011522;28;19929;-71
2023/10/29 04:42:33;;;;;;;;;;;10.70;99.90;;;;;;5026173;28;19949;-72
2023/10/29 04:44:59;;;;;;;;;;;10.70;99.90;;;;;;5032123;28;19926;-71
2023/10/29 04:47:26;;;;;;;;;;;10.70;99.90;;;;;;5019296;28;19929;-71
2023/10/29 04:49:52;;;;;;;;;;;10.70;99.90;;;;;;5020158;28;19995;-71
2023/10/29 04:52:19;;;;;;;;;;;10.70;99.90;;;;;;5012487;28;19925;-71
2023/10/29 04:54:46;;;;;;;;;;;10.70;99.90;;;;;;5012187;28;20461;-71
2023/10/29 04:57:14;;;;;;;;;;;10.70;99.90;;;;;;5011726;28;20311;-72
2023/10/29 04:59:40;;;;;;;;;;;10.70;99.90;;;;;;5012283;28;19926;-72
2023/10/29 05:02:07;;;;;;;;;;;10.60;99.90;;;;;;5011930;28;20439;-71
2023/10/29 05:04:33;;;;;;;;;;;10.60;99.90;;;;;;5012181;28;19925;-71
2023/10/29 05:06:59;;;;;;;;;;;10.60;99.90;;;;;;5010699;28;20434;-72
2023/10/29 05:09:26;;;;;;;;;;;10.60;99.90;;;;;;5011942;28;19926;-72
2023/10/29 05:11:52;;;;;;;;;;;10.60;99.90;;;;;;5011724;28;20380;-71
2023/10/29 05:14:20;;;;;;;;;;;10.60;99.90;;;;;;5012275;28;19926;-72
2023/10/29 05:16:47;;;;;;;;;;;10.60;99.90;;;;;;5011702;28;20001;-72
2023/10/29 05:19:14;;;;;;;;;;;10.60;99.90;;;;;;5015214;28;19932;-71
2023/10/29 05:21:40;;;;;;;;;;;10.60;99.90;;;;;;5011645;28;19931;-72
2023/10/29 05:24:07;;;;;;;;;;;10.60;99.90;;;;;;5011547;28;19952;-72
2023/10/29 05:26:36;;;;;;;;;;;10.60;99.90;;;;;;5007719;28;19936;-72
2023/10/29 05:29:03;;;;;;;;;;;10.70;99.90;;;;;;5011628;28;19952;-72
2023/10/29 05:31:31;;;;;;;;;;;10.90;99.90;;;;;;5011970;28;19980;-72
2023/10/29 05:33:57;;;;;;;;;;;11.00;99.90;;;;;;5011452;28;20407;-71
2023/10/29 05:36:24;;;;;;;;;;;11.20;99.90;;;;;;5011584;28;19926;-72
2023/10/29 05:38:50;;;;;;;;;;;11.30;99.90;;;;;;5010630;28;20613;-72
2023/10/29 05:41:18;;;;;;;;;;;11.40;99.90;;;;;;5011882;28;20008;-72
2023/10/29 05:43:44;;;;;;;;;;;11.40;99.90;;;;;;5011376;28;20411;-71
2023/10/29 05:46:11;;;;;;;;;;;11.50;99.90;;;;;;5014080;28;19925;-71
2023/10/29 05:48:39;;;;;;;;;;;11.50;99.90;;;;;;5011209;28;19929;-71
2023/10/29 05:51:06;;;;;;;;;;;11.50;99.90;;;;;;5013659;28;19926;-71
2023/10/29 05:53:32;;;;;;;;;;;11.50;99.90;;;;;;5015726;28;19996;-71
2023/10/29 05:55:59;;;;;;;;;;;11.50;99.90;;;;;;5015443;28;19972;-72
2023/10/29 05:58:25;;;;;;;;;;;11.50;99.90;;;;;;5016455;28;19929;-72
2023/10/29 06:00:52;;;;;;;;;;;11.50;99.90;;;;;;5015445;28;19925;-72
2023/10/29 06:03:18;;;;;;;;;;;11.50;99.90;;;;;;5015551;28;20007;-72
2023/10/29 06:05:46;;;;;;;;;;;11.50;99.90;;;;;;5015039;28;20008;-71
2023/10/29 06:08:13;;;;;;;;;;;11.50;99.90;;;;;;5014893;28;20404;-72
2023/10/29 06:10:39;;;;;;;;;;;11.50;99.90;;;;;;5015386;28;19930;-72
2023/10/29 06:13:06;;;;;;;;;;;11.50;99.90;;;;;;5013923;28;20454;-72
2023/10/29 06:15:32;;;;;;;;;;;11.60;99.90;;;;;;5015295;28;19929;-72
2023/10/29 06:17:59;;;;;;;;;;;11.60;99.90;;;;;;5014959;28;19972;-72
2023/10/29 06:20:27;;;;;;;;;;;11.60;99.90;;;;;;5014779;28;19926;-72
2023/10/29 06:22:55;;;;;;;;;;;11.60;99.90;;;;;;5015228;28;19926;-72
2023/10/29 06:25:21;;;;;;;;;;;11.60;99.90;;;;;;5015384;28;20346;-72
2023/10/29 06:27:48;;;;;;;;;;;11.60;99.90;;;;;;5014692;28;19929;-71
2023/10/29 06:30:14;;;;;;;;;;;11.60;99.90;;;;;;5014948;28;20319;-72
2023/10/29 06:32:41;;;;;;;;;;;11.50;99.90;;;;;;5014785;28;20411;-72
2023/10/29 06:35:07;;;;;;;;;;;11.50;99.90;;;;;;5014733;28;19980;-72
2023/10/29 06:37:34;;;;;;;;;;;11.50;99.90;;;;;;5013928;28;20458;-73
2023/10/29 06:40:03;;;;;;;;;;;11.50;99.90;;;;;;5014100;28;19941;-73
2023/10/29 06:42:29;;;;;;;;;;;11.50;99.90;;;;;;5014723;28;19976;-72
2023/10/29 06:44:56;;;;;;;;;;;11.60;99.90;;;;;;5014319;28;20419;-72
2023/10/29 06:47:22;;;;;;;;;;;11.70;99.90;;;;;;5011555;28;20438;-73
2023/10/29 06:49:50;;;;;;;;;;;11.70;99.90;;;;;;5012841;28;19929;-73
2023/10/29 06:52:17;;;;;;;;;;;11.60;99.90;;;;;;5014204;28;19925;-73
2023/10/29 06:54:44;;;;;;;;;;;11.60;99.90;;;;;;5014716;28;20058;-73
2023/10/29 06:57:11;;;;;;;;;;;11.50;99.90;;;;;;5014133;28;19980;-72
2023/10/29 06:59:39;;;;;;;;;;;11.50;99.90;;;;;;5014110;28;19929;-72
2023/10/29 07:02:05;;;;;;;;;;;11.40;99.90;;;;;;5011755;28;19932;-73
2023/10/29 07:04:32;;;;;;;;;;;11.30;99.90;;;;;;5014202;28;19926;-72
2023/10/29 07:06:58;;;;;;;;;;;11.20;99.90;;;;;;5014174;28;19979;-71
2023/10/29 07:09:25;;;;;;;;;;;11.10;99.90;;;;;;5013458;28;20346;-72
2023/10/29 07:11:51;;;;;;;;;;;11.00;99.90;;;;;;5010477;28;19981;-74
2023/10/29 07:14:19;;;;;;;;;;;11.00;99.90;;;;;;5010816;28;19940;-72
2023/10/29 07:16:46;;;;;;;;;;;10.90;99.90;;;;;;5009945;28;19926;-72
2023/10/29 07:19:13;;;;;;;;;;;11.00;99.90;;;;;;5010198;28;20446;-72
2023/10/29 07:21:40;;;;;;;;;;;11.10;99.90;;;;;;5010708;28;19933;-71
2023/10/29 07:24:07;;;;;;;;;;;11.10;99.90;;;;;;5010583;28;19933;-72
2023/10/29 07:26:33;;;;;;;;;;;11.00;99.90;;;;;;5010152;28;19926;-72
2023/10/29 07:29:00;;;;;;;;;;;11.00;99.90;;;;;;5009937;28;19925;-71
2023/10/29 07:31:28;;;;;;;;;;;11.10;99.90;;;;;;5010159;28;19987;-71
2023/10/29 07:33:54;;;;;;;;;;;11.30;99.90;;;;;;5010303;28;19925;-71
2023/10/29 07:36:21;;;;;;;;;;;11.30;99.90;;;;;;5010244;28;19960;-70
2023/10/29 07:38:48;;;;;;;;;;;11.40;99.90;;;;;;5009379;28;20631;-70
2023/10/29 07:41:18;;;;;;;;;;;11.40;99.90;;;;;;5010165;28;19929;-70
2023/10/29 07:43:44;;;;;;;;;;;11.40;99.90;;;;;;5010101;28;19929;-70
2023/10/29 07:46:10;;;;;;;;;;;11.50;99.90;;;;;;5010016;28;19979;-70
2023/10/29 07:48:38;;;;;;;;;;;11.50;99.90;;;;;;5009689;28;19992;-70
2023/10/29 07:51:05;;;;;;;;;;;11.50;99.90;;;;;;5009981;28;19938;-70
2023/10/29 07:53:31;;;;;;;;;;;11.50;99.90;;;;;;5009784;28;19995;-70
2023/10/29 07:56:06;;;;;;;;;;;11.60;99.90;;;;;;5009612;28;20608;-71
2023/10/29 07:58:32;;;;;;;;;;;11.60;99.90;;;;;;5009353;28;19933;-70
2023/10/29 08:00:59;;;;;;;;;;;11.60;99.90;;;;;;5009669;28;19929;-70
2023/10/29 08:03:25;;;;;;;;;;;11.60;99.90;;;;;;5009793;28;20391;-70
2023/10/29 08:05:53;;;;;;;;;;;11.60;99.90;;;;;;5009640;28;20414;-70
2023/10/29 08:08:20;;;;;;;;;;;11.50;99.90;;;;;;5009556;28;19959;-70
2023/10/29 08:10:47;;;;;;;;;;;11.50;99.90;;;;;;5009224;28;19933;-70
2023/10/29 08:13:13;;;;;;;;;;;11.40;99.90;;;;;;5008326;28;20386;-69
2023/10/29 08:15:40;;;;;;;;;;;11.30;99.90;;;;;;5012622;28;19937;-70
2023/10/29 08:18:06;;;;;;;;;;;11.30;99.90;;;;;;5012694;28;19929;-70
2023/10/29 08:20:33;;;;;;;;;;;11.30;99.90;;;;;;5013178;28;20354;-70
2023/10/29 08:23:01;;;;;;;;;;;11.30;99.90;;;;;;5013349;28;19958;-70
2023/10/29 08:25:27;;;;;;;;;;;11.30;99.90;;;;;;5008152;28;19930;-70
2023/10/29 08:27:54;;;;;;;;;;;11.30;99.90;;;;;;5009179;28;19933;-70
2023/10/29 08:30:20;;;;;;;;;;;11.30;99.90;;;;;;5009211;28;19971;-70
2023/10/29 08:32:47;;;;;;;;;;;11.30;99.90;;;;;;5009018;28;19937;-69
2023/10/29 08:35:13;;;;;;;;;;;11.30;99.90;;;;;;5009335;28;19995;-70
2023/10/29 08:37:40;;;;;;;;;;;11.30;99.90;;;;;;5008669;28;19933;-72
2023/10/29 08:40:09;;;;;;;;;;;11.30;99.90;;;;;;5008345;28;19926;-70
2023/10/29 08:42:35;;;;;;;;;;;11.30;99.90;;;;;;5008404;28;19936;-69
2023/10/29 08:45:02;;;;;;;;;;;11.30;99.90;;;;;;5008259;28;20396;-70
2023/10/29 08:47:30;;;;;;;;;;;11.30;99.90;;;;;;5007957;28;20000;-72
2023/10/29 08:49:57;;;;;;;;;;;11.30;99.90;;;;;;5008500;28;19984;-72
2023/10/29 08:52:24;;;;;;;;;;;11.30;99.90;;;;;;5007909;28;19933;-72
2023/10/29 08:54:50;;;;;;;;;;;11.40;99.90;;;;;;5008182;28;19937;-72
2023/10/29 08:57:19;;;;;;;;;;;11.50;99.90;;;;;;5008011;28;19926;-70
2023/10/29 08:59:46;;;;;;;;;;;11.50;99.90;;;;;;5007854;28;19980;-73
2023/10/29 09:02:12;;;;;;;;;;;11.60;99.90;;;;;;5008222;28;19987;-73
2023/10/29 09:04:39;;;;;;;;;;;11.60;99.90;;;;;;5008173;28;19929;-73
2023/10/29 09:07:06;;;;;;;;;;;11.70;99.90;;;;;;5007706;28;19925;-73
2023/10/29 09:09:32;;;;;;;;;;;11.80;99.90;;;;;;5008156;28;19956;-71
2023/10/29 09:11:59;;;;;;;;;;;11.80;99.90;;;;;;5008230;28;20068;-71
2023/10/29 09:14:27;;;;;;;;;;;11.80;99.90;;;;;;5007573;28;19929;-71
2023/10/29 09:16:53;;;;;;;;;;;11.90;99.90;;;;;;5007623;28;19926;-71
2023/10/29 09:19:20;;;;;;;;;;;11.90;99.90;;;;;;5007636;28;20372;-71
2023/10/29 09:21:47;;;;;;;;;;;11.90;99.90;;;;;;5007728;28;20028;-72
2023/10/29 09:24:15;;;;;;;;;;;12.00;99.90;;;;;;5007175;28;20392;-72
2023/10/29 09:26:41;;;;;;;;;;;12.00;99.90;;;;;;5007605;28;19960;-71
2023/10/29 09:29:08;;;;;;;;;;;12.00;99.90;;;;;;5007538;28;20016;-69
2023/10/29 09:31:36;;;;;;;;;;;12.10;99.90;;;;;;5007696;28;19930;-70
2023/10/29 09:34:03;;;;;;;;;;;12.10;99.90;;;;;;5007183;28;19933;-70
2023/10/29 09:36:30;;;;;;;;;;;12.20;99.90;;;;;;5007247;28;19933;-70
2023/10/29 09:38:56;;;;;;;;;;;12.20;99.90;;;;;;5007079;28;20399;-70
2023/10/29 09:41:23;;;;;;;;;;;12.30;99.90;;;;;;5007375;28;19965;-70
2023/10/29 09:43:53;;;;;;;;;;;12.30;99.90;;;;;;5007633;28;19988;-70
2023/10/29 09:46:20;;;;;;;;;;;12.40;99.90;;;;;;5007496;28;19934;-70
2023/10/29 09:48:47;;;;;;;;;;;12.40;99.90;;;;;;5006871;28;19937;-70
2023/10/29 09:51:15;;;;;;;;;;;12.50;99.90;;;;;;5007748;28;19937;-70
2023/10/29 09:53:41;;;;;;;;;;;12.50;99.90;;;;;;5007407;28;19938;-70
2023/10/29 09:56:09;;;;;;;;;;;12.50;99.90;;;;;;5007454;28;19941;-70
2023/10/29 09:58:35;;;;;;;;;;;12.60;99.90;;;;;;5007176;28;19983;-70
2023/10/29 10:01:04;;;;;;;;;;;12.50;99.90;;;;;;5007058;28;19929;-70
2023/10/29 10:03:30;;;;;;;;;;;12.50;99.90;;;;;;5006880;28;20028;-70
2023/10/29 10:05:59;;;;;;;;;;;12.50;99.90;;;;;;5007349;28;19956;-70
2023/10/29 10:08:25;;;;;;;;;;;12.50;99.90;;;;;;5006735;28;19929;-70
2023/10/29 10:10:52;;;;;;;;;;;12.50;99.90;;;;;;5007400;28;19933;-71
2023/10/29 10:13:18;;;;;;;;;;;12.50;99.90;;;;;;5007081;28;19925;-71
2023/10/29 10:15:47;;;;;;;;;;;12.40;99.90;;;;;;5006972;28;19932;-71
2023/10/29 10:18:14;;;;;;;;;;;12.40;99.90;;;;;;5007068;28;20019;-70
2023/10/29 10:20:41;;;;;;;;;;;12.50;99.90;;;;;;5007204;28;19980;-70
2023/10/29 10:23:11;;;;;;;;;;;12.50;99.90;;;;;;5007548;28;20498;-70
2023/10/29 10:25:38;;;;;;;;;;;12.50;99.90;;;;;;5007152;28;19934;-70
2023/10/29 10:28:05;;;;;;;;;;;12.50;99.90;;;;;;5006898;28;19940;-70
2023/10/29 10:30:33;;;;;;;;;;;12.50;99.90;;;;;;5007236;28;19933;-70
2023/10/29 10:33:08;;;;;;;;;;;12.50;99.90;;;;;;5007071;28;19935;-71
2023/10/29 10:35:38;;;;;;;;;;;12.60;99.90;;;;;;5006804;28;19934;-70
2023/10/29 10:38:05;;;;;;;;;;;12.60;99.90;;;;;;5009765;28;19960;-70
2023/10/29 10:40:33;;;;;;;;;;;12.70;99.90;;;;;;5010751;28;20351;-70
2023/10/29 10:42:59;;;;;;;;;;;12.70;99.90;;;;;;5010133;28;19933;-71
2023/10/29 10:45:27;;;;;;;;;;;12.80;99.90;;;;;;5010912;28;20031;-70
2023/10/29 10:47:56;;;;;;;;;;;12.80;99.90;;;;;;5010395;28;19940;-71
2023/10/29 10:50:23;;;;;;;;;;;12.80;99.90;;;;;;5009929;28;20423;-71
2023/10/29 10:52:50;;;;;;;;;;;12.80;99.90;;;;;;5010339;28;20399;-71
2023/10/29 10:55:17;;;;;;;;;;;12.80;99.90;;;;;;5010398;28;19929;-70
2023/10/29 10:57:45;;;;;;;;;;;12.80;99.90;;;;;;5009455;28;20384;-70
2023/10/29 11:00:12;;;;;;;;;;;12.80;99.90;;;;;;5009896;28;19933;-70
2023/10/29 11:02:39;;;;;;;;;;;12.80;99.90;;;;;;5010488;28;20430;-69
2023/10/29 11:05:06;;;;;;;;;;;12.70;99.90;;;;;;5010153;28;19925;-70
2023/10/29 11:07:33;;;;;;;;;;;12.80;99.90;;;;;;5009711;28;19989;-70
2023/10/29 11:09:59;;;;;;;;;;;12.80;99.90;;;;;;5010048;28;19932;-70
2023/10/29 11:12:27;;;;;;;;;;;12.70;99.90;;;;;;5010478;28;20020;-70
2023/10/29 11:15:14;;;;;;;;;;;12.70;99.90;;;;;;5010796;28;19933;-69
2023/10/29 11:17:50;;;;;;;;;;;12.70;99.90;;;;;;5010220;28;19932;-71
2023/10/29 11:20:32;;;;;;;;;;;12.70;99.90;;;;;;5010382;28;19934;-70
2023/10/29 11:23:06;;;;;;;;;;;12.70;99.90;;;;;;5010554;28;19930;-70
2023/10/29 11:25:33;;;;;;;;;;;12.70;99.90;;;;;;5010508;28;19939;-70
2023/10/29 11:27:59;;;;;;;;;;;12.70;99.90;;;;;;5009987;28;20505;-70
2023/10/29 11:30:28;;;;;;;;;;;12.70;99.90;;;;;;5010155;28;19929;-70
2023/10/29 11:33:13;;;;;;;;;;;12.70;99.90;;;;;;5010082;28;19930;-70
2023/10/29 11:35:40;;;;;;;;;;;12.80;99.90;;;;;;5010281;28;19933;-70
2023/10/29 11:38:22;;;;;;;;;;;12.80;99.90;;;;;;5010191;28;19937;-70
2023/10/29 11:40:49;;;;;;;;;;;12.80;99.90;;;;;;5009987;28;19961;-70
2023/10/29 11:43:16;;;;;;;;;;;12.80;99.90;;;;;;5010031;28;19929;-70
2023/10/29 11:45:51;;;;;;;;;;;12.80;99.90;;;;;;5009712;28;19975;-70
2023/10/29 11:48:18;;;;;;;;;;;12.80;99.90;;;;;;5009706;28;19929;-71
2023/10/29 11:51:00;;;;;;;;;;;12.80;99.90;;;;;;5009880;28;19933;-71
2023/10/29 11:53:26;;;;;;;;;;;12.80;99.90;;;;;;5009863;28;19933;-70
2023/10/29 11:55:57;;;;;;;;;;;12.70;99.90;;;;;;5009595;28;19925;-70
2023/10/29 11:58:24;;;;;;;;;;;12.70;99.90;;;;;;5009919;28;19972;-71
2023/10/29 12:00:51;;;;;;;;;;;12.70;99.90;;;;;;5009888;28;19937;-70
2023/10/29 12:03:19;;;;;;;;;;;12.70;99.90;;;;;;5009858;28;19933;-70
2023/10/29 12:05:49;;;;;;;;;;;12.60;99.90;;;;;;5009634;28;19926;-70
2023/10/29 12:08:16;;;;;;;;;;;12.60;99.90;;;;;;5009364;28;20024;-70
2023/10/29 12:10:46;;;;;;;;;;;12.60;99.90;;;;;;5009216;28;19988;-70
2023/10/29 12:13:13;;;;;;;;;;;12.50;99.90;;;;;;5009655;28;20399;-70
2023/10/29 12:15:40;;;;;;;;;;;12.50;99.90;;;;;;5009309;28;20016;-70
2023/10/29 12:18:17;;;;;;;;;;;12.50;99.90;;;;;;5009227;28;19926;-70
2023/10/29 12:20:44;;;;;;;;;;;12.50;99.90;;;;;;5009508;28;19979;-70
2023/10/29 12:23:10;;;;;;;;;;;12.50;99.90;;;;;;5009053;28;19929;-70
2023/10/29 12:25:37;;;;;;;;;;;12.50;99.90;;;;;;5009799;28;20000;-70
2023/10/29 12:28:04;;;;;;;;;;;12.60;99.90;;;;;;5009098;28;20281;-71
2023/10/29 12:30:33;;;;;;;;;;;12.50;99.90;;;;;;5009160;28;19925;-70
2023/10/29 12:33:14;;;;;;;;;;;12.60;99.90;;;;;;5009049;28;19976;-70
2023/10/29 12:35:42;;;;;;;;;;;12.60;99.90;;;;;;5009056;28;20191;-70
2023/10/29 12:38:10;;;;;;;;;;;12.60;99.90;;;;;;5008988;28;19926;-70
2023/10/29 12:40:37;;;;;;;;;;;12.70;99.90;;;;;;5009076;28;20003;-70
2023/10/29 12:43:03;;;;;;;;;;;12.70;99.90;;;;;;5008928;28;19925;-71
2023/10/29 12:45:31;;;;;;;;;;;12.70;99.90;;;;;;5009026;28;19934;-69
2023/10/29 12:48:08;;;;;;;;;;;12.70;99.90;;;;;;5008219;28;20008;-70
2023/10/29 12:50:45;;;;;;;;;;;12.80;99.90;;;;;;5008913;28;20395;-70
2023/10/29 12:53:11;;;;;;;;;;;12.90;99.90;;;;;;5009255;28;20586;-70
2023/10/29 12:55:43;;;;;;;;;;;12.90;99.90;;;;;;5008405;28;19926;-70
2023/10/29 12:58:10;;;;;;;;;;;13.00;99.90;;;;;;5008564;28;19925;-70
2023/10/29 13:00:37;;;;;;;;;;;13.00;99.90;;;;;;5007764;28;19929;-70
2023/10/29 13:03:04;;;;;;;;;;;13.00;99.90;;;;;;5008454;28;20315;-70
2023/10/29 13:05:31;;;;;;;;;;;12.90;99.90;;;;;;5008912;28;19925;-70
2023/10/29 13:07:59;;;;;;;;;;;12.90;99.90;;;;;;5008602;28;20045;-70
2023/10/29 13:10:25;;;;;;;;;;;12.90;99.90;;;;;;5008301;28;19933;-71
2023/10/29 13:12:52;;;;;;;;;;;12.90;99.90;;;;;;5008575;28;19987;-70
2023/10/29 13:15:18;;;;;;;;;;;12.90;99.90;;;;;;5008716;28;19991;-70
2023/10/29 13:17:45;;;;;;;;;;;12.90;99.90;;;;;;5008013;28;19925;-70
2023/10/29 13:20:12;;;;;;;;;;;12.90;99.90;;;;;;5008463;28;19936;-71
2023/10/29 13:22:40;;;;;;;;;;;12.80;99.90;;;;;;5008637;28;20015;-70
2023/10/29 13:25:09;;;;;;;;;;;12.80;99.90;;;;;;5008258;28;19967;-70
2023/10/29 13:27:34;;;;;;;;;;;12.80;99.90;;;;;;5008117;28;19995;-70
2023/10/29 13:30:02;;;;;;;;;;;12.70;99.90;;;;;;5008180;28;19933;-70
2023/10/29 13:32:29;;;;;;;;;;;12.70;99.90;;;;;;5008498;28;21073;-70
2023/10/29 13:34:56;;;;;;;;;;;12.70;99.90;;;;;;5008161;28;19925;-70
2023/10/29 13:37:22;;;;;;;;;;;12.70;99.90;;;;;;5007933;28;19934;-71
2023/10/29 13:39:49;;;;;;;;;;;12.70;99.90;;;;;;5008170;28;19988;-70
2023/10/29 13:42:18;;;;;;;;;;;12.70;99.90;;;;;;5007939;28;19929;-70
2023/10/29 13:44:45;;;;;;;;;;;12.60;99.90;;;;;;5008004;28;19930;-70
2023/10/29 13:47:12;;;;;;;;;;;12.60;99.90;;;;;;5007267;28;19930;-70
2023/10/29 13:49:39;;;;;;;;;;;12.60;99.90;;;;;;5007727;28;19987;-73
2023/10/29 13:52:05;;;;;;;;;;;12.60;99.90;;;;;;5007453;28;19941;-70
2023/10/29 13:54:32;;;;;;;;;;;12.50;99.90;;;;;;5006940;28;20008;-70
2023/10/29 13:56:58;;;;;;;;;;;12.50;99.90;;;;;;5006983;28;19988;-70
2023/10/29 13:59:26;;;;;;;;;;;12.40;99.90;;;;;;5007287;28;19925;-71
2023/10/29 14:01:53;;;;;;;;;;;12.40;99.90;;;;;;5007032;28;19949;-70
2023/10/29 14:04:19;;;;;;;;;;;12.40;99.90;;;;;;5007570;28;19925;-70
2023/10/29 14:06:46;;;;;;;;;;;12.40;99.90;;;;;;5006877;28;19933;-69
2023/10/29 14:09:14;;;;;;;;;;;12.40;99.90;;;;;;5006642;28;20408;-69
2023/10/29 14:11:41;;;;;;;;;;;12.40;99.90;;;;;;5007886;28;20383;-71
2023/10/29 14:14:07;;;;;;;;;;;12.40;99.90;;;;;;5011572;28;19937;-69
2023/10/29 14:16:36;;;;;;;;;;;12.40;99.90;;;;;;5010989;28;20376;-69